sensor_id;sensor_type;location;lat;lon;timestamp;pressure;altitude;pressure_sealevel;temperature;humidity
55010;BME280;40903;51.638;7.528;2023-01-05T00:02:05;100888.44;;;11.52;100.00
55010;BME280;40903;51.638;7.528;2023-01-05T00:04:30;100888.72;;;11.50;100.00
55010;BME280;40903;51.638;7.528;2023-01-05T00:06:55;100894.75;;;11.47;100.00
55010;BME280;40903;51.638;7.528;2023-01-05T00:09:20;100891.53;;;11.45;100.00
55010;BME280;40903;51.638;7.528;2023-01-05T00:11:46;100910.13;;;11.43;100.00
55010;BME280;40903;51.638;7.528;2023-01-05T00:14:30;100906.84;;;11.41;100.00
55010;BME280;40903;51.638;7.528;2023-01-05T00:17:15;100900.34;;;11.37;100.00
55010;BME280;40903;51.638;7.528;2023-01-05T00:19:59;100904.41;;;11.40;100.00
55010;BME280;40903;51.638;7.528;2023-01-05T00:22:47;100908.25;;;11.39;100.00
55010;BME280;40903;51.638;7.528;2023-01-05T00:25:17;100905.00;;;11.37;100.00
55010;BME280;40903;51.638;7.528;2023-01-05T00:27:44;100901.78;;;11.30;100.00
55010;BME280;40903;51.638;7.528;2023-01-05T00:30:10;100917.91;;;11.31;99.89
55010;BME280;40903;51.638;7.528;2023-01-05T00:32:36;100906.91;;;11.36;98.65
55010;BME280;40903;51.638;7.528;2023-01-05T00:35:01;100909.13;;;11.34;99.23
55010;BME280;40903;51.638;7.528;2023-01-05T00:37:29;100896.84;;;11.32;98.97
55010;BME280;40903;51.638;7.528;2023-01-05T00:39:54;100910.91;;;11.20;99.32
55010;BME280;40903;51.638;7.528;2023-01-05T00:42:20;100906.03;;;11.17;99.65
55010;BME280;40903;51.638;7.528;2023-01-05T00:44:45;100906.84;;;11.18;99.59
55010;BME280;40903;51.638;7.528;2023-01-05T00:47:11;100912.84;;;11.20;99.38
55010;BME280;40903;51.638;7.528;2023-01-05T00:49:36;100907.66;;;11.18;99.17
55010;BME280;40903;51.638;7.528;2023-01-05T00:52:01;100915.56;;;11.20;99.21
55010;BME280;40903;51.638;7.528;2023-01-05T00:54:27;100917.53;;;11.14;100.00
55010;BME280;40903;51.638;7.528;2023-01-05T00:56:52;100924.63;;;11.15;100.00
55010;BME280;40903;51.638;7.528;2023-01-05T00:59:17;100925.41;;;11.16;99.64
55010;BME280;40903;51.638;7.528;2023-01-05T01:01:46;100928.16;;;11.16;99.31
55010;BME280;40903;51.638;7.528;2023-01-05T01:04:11;100922.66;;;11.21;98.92
55010;BME280;40903;51.638;7.528;2023-01-05T01:06:36;100934.69;;;11.20;99.14
55010;BME280;40903;51.638;7.528;2023-01-05T01:09:02;100924.63;;;11.15;99.68
55010;BME280;40903;51.638;7.528;2023-01-05T01:11:27;100930.66;;;11.12;99.82
55010;BME280;40903;51.638;7.528;2023-01-05T01:13:52;100930.94;;;11.11;100.00
55010;BME280;40903;51.638;7.528;2023-01-05T01:16:17;100935.28;;;11.12;99.07
55010;BME280;40903;51.638;7.528;2023-01-05T01:18:43;100927.88;;;11.17;99.12
55010;BME280;40903;51.638;7.528;2023-01-05T01:21:08;100936.13;;;11.12;99.59
55010;BME280;40903;51.638;7.528;2023-01-05T01:23:34;100942.66;;;11.11;99.76
55010;BME280;40903;51.638;7.528;2023-01-05T01:26:03;100946.53;;;11.05;100.00
55010;BME280;40903;51.638;7.528;2023-01-05T01:28:28;100955.00;;;11.04;100.00
55010;BME280;40903;51.638;7.528;2023-01-05T01:30:53;100944.06;;;11.09;99.70
55010;BME280;40903;51.638;7.528;2023-01-05T01:33:18;100942.47;;;11.03;100.00
55010;BME280;40903;51.638;7.528;2023-01-05T01:35:44;100945.75;;;11.05;100.00
55010;BME280;40903;51.638;7.528;2023-01-05T01:38:09;100948.47;;;11.05;100.00
55010;BME280;40903;51.638;7.528;2023-01-05T01:40:38;100949.56;;;11.04;100.00
55010;BME280;40903;51.638;7.528;2023-01-05T01:43:08;100961.34;;;10.99;100.00
55010;BME280;40903;51.638;7.528;2023-01-05T01:45:35;100959.72;;;10.98;100.00
55010;BME280;40903;51.638;7.528;2023-01-05T01:48:00;100982.66;;;10.97;100.00
55010;BME280;40903;51.638;7.528;2023-01-05T01:50:26;100975.00;;;10.99;100.00
55010;BME280;40903;51.638;7.528;2023-01-05T01:52:53;100971.50;;;10.94;100.00
55010;BME280;40903;51.638;7.528;2023-01-05T01:55:20;100980.19;;;10.96;100.00
55010;BME280;40903;51.638;7.528;2023-01-05T01:57:46;100971.44;;;10.99;100.00
55010;BME280;40903;51.638;7.528;2023-01-05T02:00:12;100985.38;;;10.97;100.00
55010;BME280;40903;51.638;7.528;2023-01-05T02:02:39;100969.00;;;10.97;100.00
55010;BME280;40903;51.638;7.528;2023-01-05T02:05:05;100978.56;;;10.95;100.00
55010;BME280;40903;51.638;7.528;2023-01-05T02:07:32;100973.91;;;10.95;100.00
55010;BME280;40903;51.638;7.528;2023-01-05T02:09:58;100976.91;;;10.99;100.00
55010;BME280;40903;51.638;7.528;2023-01-05T02:12:47;100981.56;;;10.98;100.00
55010;BME280;40903;51.638;7.528;2023-01-05T02:18:08;100974.50;;;10.92;100.00
55010;BME280;40903;51.638;7.528;2023-01-05T02:20:41;100977.75;;;10.94;100.00
55010;BME280;40903;51.638;7.528;2023-01-05T02:23:24;100976.66;;;10.95;100.00
55010;BME280;40903;51.638;7.528;2023-01-05T02:28:53;100974.25;;;10.89;100.00
55010;BME280;40903;51.638;7.528;2023-01-05T02:31:24;100982.22;;;10.85;100.00
55010;BME280;40903;51.638;7.528;2023-01-05T02:36:36;100986.50;;;10.91;100.00
55010;BME280;40903;51.638;7.528;2023-01-05T02:39:05;100974.25;;;10.89;100.00
55010;BME280;40903;51.638;7.528;2023-01-05T02:41:37;100978.06;;;10.88;100.00
55010;BME280;40903;51.638;7.528;2023-01-05T02:44:05;100976.41;;;10.92;99.67
55010;BME280;40903;51.638;7.528;2023-01-05T02:46:31;100980.53;;;10.89;100.00
55010;BME280;40903;51.638;7.528;2023-01-05T02:48:57;100982.97;;;10.91;99.34
55010;BME280;40903;51.638;7.528;2023-01-05T02:51:23;100985.16;;;10.89;99.67
55010;BME280;40903;51.638;7.528;2023-01-05T02:53:59;100985.16;;;10.89;99.59
55010;BME280;40903;51.638;7.528;2023-01-05T02:56:37;100988.47;;;10.86;99.93
55010;BME280;40903;51.638;7.528;2023-01-05T02:59:10;100974.59;;;10.82;99.82
55010;BME280;40903;51.638;7.528;2023-01-05T03:01:42;100987.41;;;10.82;98.81
55010;BME280;40903;51.638;7.528;2023-01-05T03:04:14;100979.19;;;10.87;98.66
55010;BME280;40903;51.638;7.528;2023-01-05T03:06:46;100989.56;;;10.85;98.51
55010;BME280;40903;51.638;7.528;2023-01-05T03:09:14;100986.31;;;10.83;98.96
55010;BME280;40903;51.638;7.528;2023-01-05T03:11:52;100993.69;;;10.82;99.87
55010;BME280;40903;51.638;7.528;2023-01-05T03:14:47;100988.50;;;10.81;99.80
55010;BME280;40903;51.638;7.528;2023-01-05T03:17:17;100986.25;;;10.88;98.06
55010;BME280;40903;51.638;7.528;2023-01-05T03:19:44;100989.56;;;10.85;98.80
55010;BME280;40903;51.638;7.528;2023-01-05T03:22:12;100980.31;;;10.81;99.80
55010;BME280;40903;51.638;7.528;2023-01-05T03:24:58;100993.13;;;10.80;100.00
55010;BME280;40903;51.638;7.528;2023-01-05T03:27:42;100992.63;;;10.78;100.00
55010;BME280;40903;51.638;7.528;2023-01-05T03:30:32;100998.44;;;10.67;100.00
55010;BME280;40903;51.638;7.528;2023-01-05T03:33:19;100996.59;;;10.57;100.00
55010;BME280;40903;51.638;7.528;2023-01-05T03:36:05;100995.53;;;10.53;100.00
55010;BME280;40903;51.638;7.528;2023-01-05T03:38:39;100988.72;;;10.51;100.00
55010;BME280;40903;51.638;7.528;2023-01-05T03:41:06;101005.19;;;10.36;100.00
55010;BME280;40903;51.638;7.528;2023-01-05T03:43:35;101007.97;;;10.31;100.00
55010;BME280;40903;51.638;7.528;2023-01-05T03:46:01;101003.03;;;10.28;100.00
55010;BME280;40903;51.638;7.528;2023-01-05T03:48:33;101004.97;;;10.27;100.00
55010;BME280;40903;51.638;7.528;2023-01-05T03:50:58;101005.81;;;10.23;100.00
55010;BME280;40903;51.638;7.528;2023-01-05T03:53:23;101013.44;;;10.21;100.00
55010;BME280;40903;51.638;7.528;2023-01-05T03:55:48;101009.63;;;10.22;100.00
55010;BME280;40903;51.638;7.528;2023-01-05T03:58:14;101006.09;;;10.21;100.00
55010;BME280;40903;51.638;7.528;2023-01-05T04:00:39;101022.16;;;10.23;100.00
55010;BME280;40903;51.638;7.528;2023-01-05T04:03:04;101017.53;;;10.23;100.00
55010;BME280;40903;51.638;7.528;2023-01-05T04:05:29;101018.38;;;10.19;100.00
55010;BME280;40903;51.638;7.528;2023-01-05T04:07:55;101024.09;;;10.17;100.00
55010;BME280;40903;51.638;7.528;2023-01-05T04:10:20;101022.50;;;10.11;100.00
55010;BME280;40903;51.638;7.528;2023-01-05T04:12:46;101025.78;;;10.08;100.00
55010;BME280;40903;51.638;7.528;2023-01-05T04:15:12;101023.91;;;10.04;100.00
55010;BME280;40903;51.638;7.528;2023-01-05T04:17:37;101014.34;;;10.01;100.00
55010;BME280;40903;51.638;7.528;2023-01-05T04:20:02;101024.44;;;9.96;100.00
55010;BME280;40903;51.638;7.528;2023-01-05T04:22:30;101024.44;;;10.01;100.00
55010;BME280;40903;51.638;7.528;2023-01-05T04:24:55;101029.03;;;10.05;100.00
55010;BME280;40903;51.638;7.528;2023-01-05T04:27:20;101024.94;;;10.08;100.00
55010;BME280;40903;51.638;7.528;2023-01-05T04:29:45;101025.78;;;10.08;100.00
55010;BME280;40903;51.638;7.528;2023-01-05T04:32:11;101034.22;;;10.07;100.00
55010;BME280;40903;51.638;7.528;2023-01-05T04:34:36;101028.50;;;10.03;100.00
55010;BME280;40903;51.638;7.528;2023-01-05T04:37:01;101029.88;;;10.01;100.00
55010;BME280;40903;51.638;7.528;2023-01-05T04:39:26;101033.44;;;10.01;100.00
55010;BME280;40903;51.638;7.528;2023-01-05T04:41:52;101030.13;;;9.99;100.00
55010;BME280;40903;51.638;7.528;2023-01-05T04:44:18;101030.97;;;10.00;100.00
55010;BME280;40903;51.638;7.528;2023-01-05T04:46:43;101021.69;;;9.96;100.00
55010;BME280;40903;51.638;7.528;2023-01-05T04:49:08;101029.59;;;9.97;100.00
55010;BME280;40903;51.638;7.528;2023-01-05T04:51:33;101037.78;;;9.97;100.00
55010;BME280;40903;51.638;7.528;2023-01-05T04:53:59;101031.78;;;9.95;100.00
55010;BME280;40903;51.638;7.528;2023-01-05T04:56:24;101042.41;;;9.97;100.00
55010;BME280;40903;51.638;7.528;2023-01-05T04:58:49;101044.31;;;9.96;100.00
55010;BME280;40903;51.638;7.528;2023-01-05T05:01:14;101045.97;;;9.92;100.00
55010;BME280;40903;51.638;7.528;2023-01-05T05:03:39;101050.59;;;9.92;100.00
55010;BME280;40903;51.638;7.528;2023-01-05T05:06:05;101046.25;;;9.91;100.00
55010;BME280;40903;51.638;7.528;2023-01-05T05:08:30;101064.75;;;9.94;100.00
55010;BME280;40903;51.638;7.528;2023-01-05T05:10:55;101062.31;;;10.02;100.00
55010;BME280;40903;51.638;7.528;2023-01-05T05:13:21;101057.13;;;10.01;100.00
55010;BME280;40903;51.638;7.528;2023-01-05T05:15:46;101061.50;;;10.02;100.00
55010;BME280;40903;51.638;7.528;2023-01-05T05:18:11;101062.03;;;10.04;100.00
55010;BME280;40903;51.638;7.528;2023-01-05T05:20:37;101069.66;;;10.02;100.00
55010;BME280;40903;51.638;7.528;2023-01-05T05:23:05;101066.94;;;10.02;100.00
55010;BME280;40903;51.638;7.528;2023-01-05T05:25:30;101072.41;;;10.02;100.00
55010;BME280;40903;51.638;7.528;2023-01-05T05:27:55;101069.91;;;10.00;100.00
55010;BME280;40903;51.638;7.528;2023-01-05T05:30:20;101078.91;;;9.96;100.00
55010;BME280;40903;51.638;7.528;2023-01-05T05:32:45;101072.66;;;9.95;100.00
55010;BME280;40903;51.638;7.528;2023-01-05T05:35:11;101077.84;;;9.92;100.00
55010;BME280;40903;51.638;7.528;2023-01-05T05:37:36;101087.09;;;9.91;100.00
55010;BME280;40903;51.638;7.528;2023-01-05T05:40:01;101083.00;;;9.88;100.00
55010;BME280;40903;51.638;7.528;2023-01-05T05:42:26;101086.84;;;9.87;100.00
55010;BME280;40903;51.638;7.528;2023-01-05T05:44:51;101088.72;;;9.92;100.00
55010;BME280;40903;51.638;7.528;2023-01-05T05:47:17;101095.81;;;9.93;100.00
55010;BME280;40903;51.638;7.528;2023-01-05T05:49:44;101090.38;;;9.93;100.00
55010;BME280;40903;51.638;7.528;2023-01-05T05:52:09;101094.44;;;9.95;100.00
55010;BME280;40903;51.638;7.528;2023-01-05T05:54:34;101094.16;;;9.97;100.00
55010;BME280;40903;51.638;7.528;2023-01-05T05:57:00;101101.53;;;9.96;100.00
55010;BME280;40903;51.638;7.528;2023-01-05T05:59:25;101107.25;;;9.95;100.00
55010;BME280;40903;51.638;7.528;2023-01-05T06:01:50;101109.16;;;9.94;100.00
55010;BME280;40903;51.638;7.528;2023-01-05T06:04:16;101117.34;;;9.94;100.00
55010;BME280;40903;51.638;7.528;2023-01-05T06:06:42;101120.88;;;9.95;100.00
55010;BME280;40903;51.638;7.528;2023-01-05T06:09:07;101122.50;;;9.96;100.00
55010;BME280;40903;51.638;7.528;2023-01-05T06:11:32;101122.50;;;9.96;100.00
55010;BME280;40903;51.638;7.528;2023-01-05T06:13:57;101117.59;;;9.93;100.00
55010;BME280;40903;51.638;7.528;2023-01-05T06:16:23;101120.63;;;9.91;100.00
55010;BME280;40903;51.638;7.528;2023-01-05T06:18:48;101131.22;;;9.93;100.00
55010;BME280;40903;51.638;7.528;2023-01-05T06:21:13;101133.16;;;9.92;100.00
55010;BME280;40903;51.638;7.528;2023-01-05T06:23:38;101138.31;;;9.94;100.00
55010;BME280;40903;51.638;7.528;2023-01-05T06:26:04;101136.13;;;9.91;100.00
55010;BME280;40903;51.638;7.528;2023-01-05T06:28:30;101136.41;;;9.89;100.00
55010;BME280;40903;51.638;7.528;2023-01-05T06:30:55;101134.50;;;9.90;100.00
55010;BME280;40903;51.638;7.528;2023-01-05T06:33:20;101130.41;;;9.92;100.00
55010;BME280;40903;51.638;7.528;2023-01-05T06:35:45;101142.69;;;9.90;100.00
55010;BME280;40903;51.638;7.528;2023-01-05T06:38:11;101143.22;;;9.92;100.00
55010;BME280;40903;51.638;7.528;2023-01-05T06:40:37;101150.28;;;9.93;100.00
55010;BME280;40903;51.638;7.528;2023-01-05T06:43:03;101143.22;;;9.92;100.00
55010;BME280;40903;51.638;7.528;2023-01-05T06:45:28;101147.31;;;9.94;100.00
55010;BME280;40903;51.638;7.528;2023-01-05T06:47:53;101148.41;;;9.93;100.00
55010;BME280;40903;51.638;7.528;2023-01-05T06:50:18;101146.78;;;9.92;100.00
55010;BME280;40903;51.638;7.528;2023-01-05T06:52:43;101156.84;;;9.92;100.00
55010;BME280;40903;51.638;7.528;2023-01-05T06:55:09;101167.16;;;9.95;100.00
55010;BME280;40903;51.638;7.528;2023-01-05T06:57:35;101162.53;;;9.90;100.00
55010;BME280;40903;51.638;7.528;2023-01-05T07:00:02;101160.38;;;9.92;100.00
55010;BME280;40903;51.638;7.528;2023-01-05T07:02:27;101162.81;;;9.94;100.00
55010;BME280;40903;51.638;7.528;2023-01-05T07:04:52;101164.22;;;9.91;100.00
55010;BME280;40903;51.638;7.528;2023-01-05T07:07:17;101172.63;;;9.95;100.00
55010;BME280;40903;51.638;7.528;2023-01-05T07:09:42;101162.31;;;9.87;100.00
55010;BME280;40903;51.638;7.528;2023-01-05T07:12:13;101175.91;;;9.82;100.00
55010;BME280;40903;51.638;7.528;2023-01-05T07:14:38;101182.19;;;9.82;100.00
55010;BME280;40903;51.638;7.528;2023-01-05T07:17:03;101184.91;;;9.82;100.00
55010;BME280;40903;51.638;7.528;2023-01-05T07:19:29;101189.81;;;9.80;100.00
55010;BME280;40903;51.638;7.528;2023-01-05T07:21:54;101186.25;;;9.80;100.00
55010;BME280;40903;51.638;7.528;2023-01-05T07:24:19;101188.44;;;9.78;100.00
55010;BME280;40903;51.638;7.528;2023-01-05T07:26:44;101189.53;;;9.82;100.00
55010;BME280;40903;51.638;7.528;2023-01-05T07:29:10;101189.81;;;9.80;100.00
55010;BME280;40903;51.638;7.528;2023-01-05T07:31:35;101203.44;;;9.80;100.00
55010;BME280;40903;51.638;7.528;2023-01-05T07:34:00;101202.59;;;9.80;100.00
55010;BME280;40903;51.638;7.528;2023-01-05T07:36:25;101210.22;;;9.83;100.00
55010;BME280;40903;51.638;7.528;2023-01-05T07:38:51;101203.72;;;9.84;100.00
55010;BME280;40903;51.638;7.528;2023-01-05T07:41:16;101200.41;;;9.82;100.00
55010;BME280;40903;51.638;7.528;2023-01-05T07:43:42;101201.50;;;9.81;100.00
55010;BME280;40903;51.638;7.528;2023-01-05T07:46:07;101212.16;;;9.82;100.00
55010;BME280;40903;51.638;7.528;2023-01-05T07:48:32;101207.50;;;9.83;100.00
55010;BME280;40903;51.638;7.528;2023-01-05T07:50:58;101214.31;;;9.85;100.00
55010;BME280;40903;51.638;7.528;2023-01-05T07:53:25;101215.94;;;9.86;100.00
55010;BME280;40903;51.638;7.528;2023-01-05T07:55:53;101222.22;;;9.92;100.00
55010;BME280;40903;51.638;7.528;2023-01-05T07:58:19;101207.50;;;9.88;100.00
55010;BME280;40903;51.638;7.528;2023-01-05T08:00:44;101217.03;;;9.90;100.00
55010;BME280;40903;51.638;7.528;2023-01-05T08:03:09;101222.75;;;9.89;100.00
55010;BME280;40903;51.638;7.528;2023-01-05T08:05:34;101230.66;;;9.85;100.00
55010;BME280;40903;51.638;7.528;2023-01-05T08:08:00;101231.19;;;9.87;100.00
55010;BME280;40903;51.638;7.528;2023-01-05T08:10:25;101243.47;;;9.90;100.00
55010;BME280;40903;51.638;7.528;2023-01-05T08:12:53;101241.84;;;9.89;100.00
55010;BME280;40903;51.638;7.528;2023-01-05T08:15:37;101249.44;;;9.92;100.00
55010;BME280;40903;51.638;7.528;2023-01-05T08:18:02;101245.09;;;9.96;100.00
55010;BME280;40903;51.638;7.528;2023-01-05T08:20:28;101248.66;;;9.91;100.00
55010;BME280;40903;51.638;7.528;2023-01-05T08:22:53;101254.66;;;9.93;100.00
55010;BME280;40903;51.638;7.528;2023-01-05T08:25:18;101249.72;;;9.95;100.00
55010;BME280;40903;51.638;7.528;2023-01-05T08:27:44;101259.53;;;9.96;100.00
55010;BME280;40903;51.638;7.528;2023-01-05T08:30:10;101272.31;;;9.96;100.00
55010;BME280;40903;51.638;7.528;2023-01-05T08:32:36;101271.53;;;9.95;100.00
55010;BME280;40903;51.638;7.528;2023-01-05T08:35:01;101258.72;;;10.01;100.00
55010;BME280;40903;51.638;7.528;2023-01-05T08:37:26;101262.56;;;10.05;100.00
55010;BME280;40903;51.638;7.528;2023-01-05T08:39:52;101261.22;;;10.07;100.00
55010;BME280;40903;51.638;7.528;2023-01-05T08:42:17;101278.34;;;10.13;100.00
55010;BME280;40903;51.638;7.528;2023-01-05T08:44:42;101270.47;;;10.11;100.00
55010;BME280;40903;51.638;7.528;2023-01-05T08:47:07;101272.63;;;10.14;100.00
55010;BME280;40903;51.638;7.528;2023-01-05T08:49:33;101280.00;;;10.14;100.00
55010;BME280;40903;51.638;7.528;2023-01-05T08:51:58;101283.00;;;10.12;100.00
55010;BME280;40903;51.638;7.528;2023-01-05T08:54:23;101287.09;;;10.15;100.00
55010;BME280;40903;51.638;7.528;2023-01-05T08:56:48;101287.63;;;10.17;100.00
55010;BME280;40903;51.638;7.528;2023-01-05T08:59:15;101287.88;;;10.15;100.00
55010;BME280;40903;51.638;7.528;2023-01-05T09:01:40;101279.72;;;10.15;100.00
55010;BME280;40903;51.638;7.528;2023-01-05T09:04:05;101293.06;;;10.22;100.00
55010;BME280;40903;51.638;7.528;2023-01-05T09:06:31;101282.97;;;10.17;100.00
55010;BME280;40903;51.638;7.528;2023-01-05T09:08:56;101289.53;;;10.16;100.00
55010;BME280;40903;51.638;7.528;2023-01-05T09:11:22;101299.63;;;10.16;100.00
55010;BME280;40903;51.638;7.528;2023-01-05T09:13:48;101295.81;;;10.17;100.00
55010;BME280;40903;51.638;7.528;2023-01-05T09:16:15;101306.16;;;10.20;100.00
55010;BME280;40903;51.638;7.528;2023-01-05T09:18:41;101303.41;;;10.25;100.00
55010;BME280;40903;51.638;7.528;2023-01-05T09:21:07;101301.22;;;10.27;100.00
55010;BME280;40903;51.638;7.528;2023-01-05T09:23:33;101309.16;;;10.28;100.00
55010;BME280;40903;51.638;7.528;2023-01-05T09:25:59;101314.59;;;10.33;100.00
55010;BME280;40903;51.638;7.528;2023-01-05T09:28:24;101317.84;;;10.35;100.00
55010;BME280;40903;51.638;7.528;2023-01-05T09:30:49;101319.47;;;10.36;100.00
55010;BME280;40903;51.638;7.528;2023-01-05T09:33:14;101314.59;;;10.33;100.00
55010;BME280;40903;51.638;7.528;2023-01-05T09:35:40;101327.94;;;10.35;100.00
55010;BME280;40903;51.638;7.528;2023-01-05T09:38:05;101327.41;;;10.38;100.00
55010;BME280;40903;51.638;7.528;2023-01-05T09:40:33;101336.13;;;10.40;100.00
55010;BME280;40903;51.638;7.528;2023-01-05T09:43:01;101335.31;;;10.39;100.00
55010;BME280;40903;51.638;7.528;2023-01-05T09:45:26;101327.94;;;10.45;100.00
55010;BME280;40903;51.638;7.528;2023-01-05T09:47:52;101349.19;;;10.43;100.00
55010;BME280;40903;51.638;7.528;2023-01-05T09:50:20;101347.03;;;10.45;100.00
55010;BME280;40903;51.638;7.528;2023-01-05T09:52:46;101351.66;;;10.49;100.00
55010;BME280;40903;51.638;7.528;2023-01-05T09:55:13;101354.09;;;10.56;100.00
55010;BME280;40903;51.638;7.528;2023-01-05T09:57:39;101359.56;;;10.61;100.00
55010;BME280;40903;51.638;7.528;2023-01-05T10:00:05;101365.56;;;10.63;100.00
55010;BME280;40903;51.638;7.528;2023-01-05T10:02:32;101369.91;;;10.69;100.00
55010;BME280;40903;51.638;7.528;2023-01-05T10:04:59;101376.44;;;10.68;100.00
55010;BME280;40903;51.638;7.528;2023-01-05T10:07:48;101364.44;;;10.69;100.00
55010;BME280;40903;51.638;7.528;2023-01-05T10:10:16;101373.47;;;10.69;100.00
55010;BME280;40903;51.638;7.528;2023-01-05T10:12:49;101371.00;;;10.68;100.00
55010;BME280;40903;51.638;7.528;2023-01-05T10:15:28;101375.91;;;10.71;100.00
55010;BME280;40903;51.638;7.528;2023-01-05T10:17:54;101374.28;;;10.75;100.00
55010;BME280;40903;51.638;7.528;2023-01-05T10:20:39;101380.50;;;10.80;100.00
55010;BME280;40903;51.638;7.528;2023-01-05T10:23:17;101380.50;;;10.80;100.00
55010;BME280;40903;51.638;7.528;2023-01-05T10:25:48;101381.34;;;10.81;100.00
55010;BME280;40903;51.638;7.528;2023-01-05T10:31:00;101392.78;;;10.88;100.00
55010;BME280;40903;51.638;7.528;2023-01-05T10:38:49;101396.88;;;10.90;100.00
55010;BME280;40903;51.638;7.528;2023-01-05T10:41:53;101395.50;;;10.93;100.00
55010;BME280;40903;51.638;7.528;2023-01-05T10:46:50;101396.31;;;11.03;100.00
55010;BME280;40903;51.638;7.528;2023-01-05T10:49:20;101393.56;;;11.08;100.00
55010;BME280;40903;51.638;7.528;2023-01-05T10:51:48;101397.09;;;11.14;100.00
55010;BME280;40903;51.638;7.528;2023-01-05T10:54:24;101397.91;;;11.19;100.00
55010;BME280;40903;51.638;7.528;2023-01-05T10:56:50;101402.00;;;11.22;100.00
55010;BME280;40903;51.638;7.528;2023-01-05T10:59:15;101400.38;;;11.21;100.00
55010;BME280;40903;51.638;7.528;2023-01-05T11:01:45;101405.53;;;11.22;100.00
55010;BME280;40903;51.638;7.528;2023-01-05T11:04:23;101411.00;;;11.27;100.00
55010;BME280;40903;51.638;7.528;2023-01-05T11:06:48;101411.75;;;11.33;100.00
55010;BME280;40903;51.638;7.528;2023-01-05T11:09:18;101412.34;;;11.25;100.00
55010;BME280;40903;51.638;7.528;2023-01-05T11:11:51;101411.53;;;11.24;100.00
55010;BME280;40903;51.638;7.528;2023-01-05T11:14:17;101415.09;;;11.25;100.00
55010;BME280;40903;51.638;7.528;2023-01-05T11:16:45;101410.44;;;11.25;100.00
55010;BME280;40903;51.638;7.528;2023-01-05T11:19:12;101422.72;;;11.28;100.00
55010;BME280;40903;51.638;7.528;2023-01-05T11:21:39;101410.19;;;11.22;100.00
55010;BME280;40903;51.638;7.528;2023-01-05T11:26:49;101406.34;;;11.23;100.00
55010;BME280;40903;51.638;7.528;2023-01-05T11:29:15;101406.34;;;11.23;100.00
55010;BME280;40903;51.638;7.528;2023-01-05T11:31:43;101407.44;;;11.27;100.00
55010;BME280;40903;51.638;7.528;2023-01-05T11:37:00;101409.88;;;11.33;100.00
55010;BME280;40903;51.638;7.528;2023-01-05T11:42:05;101405.47;;;11.37;100.00
55010;BME280;40903;51.638;7.528;2023-01-05T11:44:31;101408.47;;;11.41;100.00
55010;BME280;40903;51.638;7.528;2023-01-05T11:46:57;101410.06;;;11.47;100.00
55010;BME280;40903;51.638;7.528;2023-01-05T11:49:22;101415.53;;;11.47;100.00
55010;BME280;40903;51.638;7.528;2023-01-05T11:51:48;101412.53;;;11.48;100.00
55010;BME280;40903;51.638;7.528;2023-01-05T11:54:33;101410.34;;;11.50;100.00
55010;BME280;40903;51.638;7.528;2023-01-05T11:57:05;101405.97;;;11.49;100.00
55010;BME280;40903;51.638;7.528;2023-01-05T11:59:36;101398.06;;;11.48;100.00
55010;BME280;40903;51.638;7.528;2023-01-05T12:05:21;101412.88;;;11.37;100.00
55010;BME280;40903;51.638;7.528;2023-01-05T12:07:39;101411.22;;;11.41;100.00
55010;BME280;40903;51.638;7.528;2023-01-05T12:23:04;101416.06;;;11.59;100.00
55010;BME280;40903;51.638;7.528;2023-01-05T12:41:34;101443.38;;;11.54;100.00
55010;BME280;40903;51.638;7.528;2023-01-05T12:44:07;101433.56;;;11.53;100.00
55010;BME280;40903;51.638;7.528;2023-01-05T12:52:08;101432.47;;;11.54;100.00
55010;BME280;40903;51.638;7.528;2023-01-05T12:54:49;101439.03;;;11.53;100.00
55010;BME280;40903;51.638;7.528;2023-01-05T12:57:49;101434.66;;;11.47;100.00
55010;BME280;40903;51.638;7.528;2023-01-05T13:00:13;101435.19;;;11.49;100.00
55010;BME280;40903;51.638;7.528;2023-01-05T13:02:56;101440.66;;;11.49;100.00
55010;BME280;40903;51.638;7.528;2023-01-05T13:05:31;101438.50;;;11.51;100.00
55010;BME280;40903;51.638;7.528;2023-01-05T13:13:41;101442.28;;;11.55;100.00
55010;BME280;40903;51.638;7.528;2023-01-05T13:18:34;101440.66;;;11.59;100.00
55010;BME280;40903;51.638;7.528;2023-01-05T13:21:01;101451.31;;;11.60;100.00
55010;BME280;40903;51.638;7.528;2023-01-05T13:23:28;101452.66;;;11.63;100.00
55010;BME280;40903;51.638;7.528;2023-01-05T13:26:03;101451.81;;;11.67;100.00
55010;BME280;40903;51.638;7.528;2023-01-05T13:28:29;101458.69;;;11.65;100.00
55010;BME280;40903;51.638;7.528;2023-01-05T13:31:07;101450.50;;;11.65;100.00
55010;BME280;40903;51.638;7.528;2023-01-05T13:33:54;101452.91;;;11.66;100.00
55010;BME280;40903;51.638;7.528;2023-01-05T13:36:41;101456.50;;;11.67;100.00
55010;BME280;40903;51.638;7.528;2023-01-05T13:44:23;101463.06;;;11.66;100.00
55010;BME280;40903;51.638;7.528;2023-01-05T13:47:01;101457.59;;;11.66;100.00
55010;BME280;40903;51.638;7.528;2023-01-05T13:51:54;101461.41;;;11.60;99.11
55010;BME280;40903;51.638;7.528;2023-01-05T13:56:58;101468.50;;;11.56;100.00
55010;BME280;40903;51.638;7.528;2023-01-05T13:59:27;101472.91;;;11.52;100.00
55010;BME280;40903;51.638;7.528;2023-01-05T14:01:53;101462.22;;;11.55;99.12
55010;BME280;40903;51.638;7.528;2023-01-05T14:06:46;101477.28;;;11.58;98.68
55010;BME280;40903;51.638;7.528;2023-01-05T14:09:14;101471.25;;;11.56;98.14
55010;BME280;40903;51.638;7.528;2023-01-05T14:12:22;101476.44;;;11.52;99.52
55010;BME280;40903;51.638;7.528;2023-01-05T14:14:26;101481.63;;;11.49;99.67
55010;BME280;40903;51.638;7.528;2023-01-05T14:16:52;101483.28;;;11.45;100.00